createdAt,value
2019-02-23T00:00:01.224Z,2.07
2019-02-23T00:00:41.745Z,2.08
2019-02-23T00:01:22.337Z,2.08
2019-02-23T00:02:02.946Z,2.08
2019-02-23T00:02:43.616Z,2.04
2019-02-23T00:03:24.383Z,2.07
2019-02-23T00:04:04.953Z,2.02
2019-02-23T00:04:45.511Z,2.02
2019-02-23T00:05:26.097Z,1.97
2019-02-23T00:06:06.706Z,1.97
2019-02-23T00:06:47.309Z,1.92
2019-02-23T00:07:27.857Z,1.91
2019-02-23T00:08:08.428Z,1.89
2019-02-23T00:08:49.020Z,1.99
2019-02-23T00:09:29.718Z,1.88
2019-02-23T00:10:10.352Z,1.92
2019-02-23T00:10:50.883Z,1.89
2019-02-23T00:11:31.465Z,1.94
2019-02-23T00:12:12.023Z,1.89
2019-02-23T00:12:52.578Z,1.95
2019-02-23T00:13:33.161Z,1.92
2019-02-23T00:14:13.720Z,1.92
2019-02-23T00:14:54.265Z,1.99
2019-02-23T00:15:34.843Z,1.95
2019-02-23T00:16:15.449Z,1.91
2019-02-23T00:16:56.026Z,1.99
2019-02-23T00:17:36.697Z,1.94
2019-02-23T00:18:17.213Z,1.85
2019-02-23T00:18:57.778Z,1.94
2019-02-23T00:19:38.378Z,1.88
2019-02-23T00:20:18.946Z,1.97
2019-02-23T00:20:59.536Z,1.91
2019-02-23T00:21:40.130Z,1.94
2019-02-23T00:22:20.712Z,1.91
2019-02-23T00:23:01.264Z,1.92
2019-02-23T00:23:41.820Z,1.97
2019-02-23T00:24:22.447Z,1.91
2019-02-23T00:25:03.008Z,1.84
2019-02-23T00:25:43.580Z,1.84
2019-02-23T00:26:24.145Z,1.81
2019-02-23T00:27:04.721Z,1.76
2019-02-23T00:27:45.320Z,1.74
2019-02-23T00:28:25.886Z,1.71
2019-02-23T00:29:06.447Z,1.74
2019-02-23T00:29:47.018Z,1.71
2019-02-23T00:30:27.645Z,1.76
2019-02-23T00:31:08.263Z,1.8
2019-02-23T00:31:49.092Z,1.78
2019-02-23T00:32:29.677Z,1.91
2019-02-23T00:33:10.286Z,1.81
2019-02-23T00:33:50.948Z,1.78
2019-02-23T00:34:31.552Z,1.85
2019-02-23T00:35:12.141Z,1.76
2019-02-23T00:35:52.674Z,1.78
2019-02-23T00:36:33.249Z,1.77
2019-02-23T00:37:13.809Z,1.8
2019-02-23T00:37:54.420Z,1.76
2019-02-23T00:38:34.999Z,1.78
2019-02-23T00:39:15.563Z,1.78
2019-02-23T00:39:56.275Z,1.76
2019-02-23T00:40:36.858Z,1.77
2019-02-23T00:41:17.452Z,1.76
2019-02-23T00:41:58.018Z,1.8
2019-02-23T00:42:38.557Z,1.8
2019-02-23T00:43:19.137Z,1.74
2019-02-23T00:43:59.715Z,1.84
2019-02-23T00:44:40.281Z,1.8
2019-02-23T00:45:20.877Z,1.78
2019-02-23T00:46:01.435Z,1.73
2019-02-23T00:46:41.994Z,1.74
2019-02-23T00:47:22.590Z,1.73
2019-02-23T00:48:03.166Z,1.76
2019-02-23T00:48:43.761Z,1.7
2019-02-23T00:49:35.500Z,1.73
2019-02-23T00:50:04.893Z,1.73
2019-02-23T00:50:45.466Z,1.8
2019-02-23T00:51:26.035Z,1.76
2019-02-23T00:52:06.596Z,1.8
2019-02-23T00:52:47.168Z,1.74
2019-02-23T00:53:27.719Z,1.76
2019-02-23T00:54:08.284Z,1.8
2019-02-23T00:54:48.872Z,1.85
2019-02-23T00:55:29.426Z,1.74
2019-02-23T00:56:10.008Z,1.77
2019-02-23T00:56:50.617Z,1.77
2019-02-23T00:57:31.206Z,1.73
2019-02-23T00:58:11.770Z,1.8
2019-02-23T00:58:52.333Z,1.81
2019-02-23T00:59:32.887Z,1.76
2019-02-23T01:00:13.463Z,1.73
2019-02-23T01:00:54.025Z,1.8
2019-02-23T01:01:34.580Z,1.76
2019-02-23T01:02:15.169Z,1.8
2019-02-23T01:02:55.725Z,1.77
2019-02-23T01:03:36.281Z,1.76
2019-02-23T01:04:16.838Z,1.78
2019-02-23T01:04:57.400Z,1.81
2019-02-23T01:05:37.954Z,1.87
2019-02-23T01:06:18.541Z,1.85
2019-02-23T01:06:59.102Z,1.81
2019-02-23T01:07:39.716Z,1.87
2019-02-23T01:08:20.330Z,1.87
2019-02-23T01:09:00.883Z,1.88
2019-02-23T01:09:41.543Z,1.91
2019-02-23T01:10:22.087Z,1.88
2019-02-23T01:11:02.645Z,1.8
2019-02-23T01:11:43.208Z,1.81
2019-02-23T01:12:23.823Z,1.81
2019-02-23T01:13:04.420Z,1.8
2019-02-23T01:13:45.040Z,1.8
2019-02-23T01:14:25.600Z,1.78
2019-02-23T01:15:06.196Z,1.8
2019-02-23T01:15:46.792Z,1.76
2019-02-23T01:16:27.399Z,1.78
2019-02-23T01:17:07.957Z,1.81
2019-02-23T01:17:48.548Z,1.8
2019-02-23T01:18:29.117Z,1.81
2019-02-23T01:19:09.694Z,1.76
2019-02-23T01:19:50.287Z,1.74
2019-02-23T01:20:30.879Z,1.67
2019-02-23T01:21:11.427Z,1.58
2019-02-23T01:21:52.073Z,1.56
2019-02-23T01:22:32.631Z,1.6
2019-02-23T01:23:13.189Z,1.66
2019-02-23T01:23:53.778Z,1.59
2019-02-23T01:24:34.336Z,1.55
2019-02-23T01:25:14.911Z,1.71
2019-02-23T01:25:55.468Z,1.6
2019-02-23T01:26:36.017Z,1.62
2019-02-23T01:27:16.571Z,1.58
2019-02-23T01:27:57.138Z,1.49
2019-02-23T01:28:37.692Z,1.53
2019-02-23T01:29:21.354Z,1.58
2019-02-23T01:30:01.918Z,1.53
2019-02-23T01:30:42.464Z,1.5
2019-02-23T01:31:23.028Z,1.56
2019-02-23T01:32:03.622Z,1.63
2019-02-23T01:32:44.245Z,1.67
2019-02-23T01:33:24.824Z,1.59
2019-02-23T01:34:05.406Z,1.59
2019-02-23T01:34:45.960Z,1.56
2019-02-23T01:35:26.514Z,1.55
2019-02-23T01:36:07.147Z,1.49
2019-02-23T01:36:47.722Z,1.52
2019-02-23T01:37:28.283Z,1.48
2019-02-23T01:38:08.852Z,1.38
2019-02-23T01:38:49.407Z,1.42
2019-02-23T01:39:29.949Z,1.42
2019-02-23T01:40:10.505Z,1.31
2019-02-23T01:40:51.067Z,1.31
2019-02-23T01:41:31.666Z,1.3
2019-02-23T01:42:12.203Z,1.2
2019-02-23T01:42:52.830Z,1.26
2019-02-23T01:43:33.394Z,1.24
2019-02-23T01:44:13.950Z,1.31
2019-02-23T01:44:54.537Z,1.24
2019-02-23T01:45:42.015Z,1.17
2019-02-23T01:46:15.657Z,1.3
2019-02-23T01:46:56.210Z,1.23
2019-02-23T01:47:36.810Z,1.28
2019-02-23T01:48:17.378Z,1.34
2019-02-23T01:48:57.949Z,1.26
2019-02-23T01:49:38.519Z,1.23
2019-02-23T01:50:19.077Z,1.26
2019-02-23T01:50:59.715Z,1.17
2019-02-23T01:51:40.284Z,1.16
2019-02-23T01:52:20.828Z,1.16
2019-02-23T01:53:01.389Z,1.22
2019-02-23T01:53:41.938Z,1.16
2019-02-23T01:54:22.493Z,1.13
2019-02-23T01:55:03.054Z,1.12
2019-02-23T01:55:43.695Z,1.17
2019-02-23T01:56:24.362Z,1.16
2019-02-23T01:57:04.958Z,1.13
2019-02-23T01:57:45.526Z,1.2
2019-02-23T01:58:26.073Z,1.16
2019-02-23T01:59:07.022Z,1.06
2019-02-23T01:59:47.567Z,1.16
2019-02-23T02:00:28.145Z,1.19
2019-02-23T02:01:08.737Z,1.23
2019-02-23T02:01:49.304Z,1.16
2019-02-23T02:02:29.850Z,1.2
2019-02-23T02:03:10.405Z,1.19
2019-02-23T02:03:50.960Z,1.24
2019-02-23T02:04:31.588Z,1.2
2019-02-23T02:05:12.172Z,1.34
2019-02-23T02:05:52.778Z,1.28
2019-02-23T02:06:33.676Z,1.34
2019-02-23T02:07:13.880Z,1.26
2019-02-23T02:07:54.480Z,1.34
2019-02-23T02:08:35.137Z,1.26
2019-02-23T02:09:15.619Z,1.4
2019-02-23T02:09:56.169Z,1.42
2019-02-23T02:10:36.723Z,1.41
2019-02-23T02:11:17.285Z,1.34
2019-02-23T02:11:57.834Z,1.31
2019-02-23T02:12:38.374Z,1.38
2019-02-23T02:13:18.937Z,1.28
2019-02-23T02:13:59.535Z,1.28
2019-02-23T02:14:40.089Z,1.28
2019-02-23T02:15:20.666Z,1.37
2019-02-23T02:16:01.263Z,1.3
2019-02-23T02:16:41.844Z,1.23
2019-02-23T02:17:22.443Z,1.23
2019-02-23T02:18:03.014Z,1.26
2019-02-23T02:18:43.595Z,1.28
2019-02-23T02:19:24.159Z,1.19
2019-02-23T02:20:10.754Z,1.22
2019-02-23T02:20:45.394Z,1.23
2019-02-23T02:21:25.897Z,1.19
2019-02-23T02:22:06.449Z,1.17
2019-02-23T02:22:47.023Z,1.24
2019-02-23T02:23:27.569Z,1.23
2019-02-23T02:24:08.123Z,1.17
2019-02-23T02:24:48.672Z,1.14
2019-02-23T02:25:29.225Z,1.16
2019-02-23T02:26:09.822Z,1.26
2019-02-23T02:26:50.402Z,1.23
2019-02-23T02:27:31.045Z,1.22
2019-02-23T02:28:11.596Z,1.35
2019-02-23T02:28:52.176Z,1.32
2019-02-23T02:29:32.738Z,1.24
2019-02-23T02:30:13.329Z,1.24
2019-02-23T02:30:53.879Z,1.26
2019-02-23T02:31:34.456Z,1.34
2019-02-23T02:32:15.003Z,1.2
2019-02-23T02:32:55.611Z,1.2
2019-02-23T02:33:36.142Z,1.28
2019-02-23T02:34:16.703Z,1.3
2019-02-23T02:34:57.256Z,1.19
2019-02-23T02:35:37.813Z,1.28
2019-02-23T02:36:18.368Z,1.31
2019-02-23T02:36:58.969Z,1.19
2019-02-23T02:37:39.533Z,1.2
2019-02-23T02:38:20.145Z,1.16
2019-02-23T02:39:00.706Z,1.16
2019-02-23T02:39:41.276Z,1.06
2019-02-23T02:40:21.853Z,1.13
2019-02-23T02:41:02.416Z,1.12
2019-02-23T02:41:43.034Z,0.94
2019-02-23T02:42:23.645Z,0.95
2019-02-23T02:43:04.313Z,0.98
2019-02-23T02:43:44.849Z,0.96
2019-02-23T02:44:25.408Z,0.98
2019-02-23T02:45:05.978Z,0.96
2019-02-23T02:45:46.541Z,0.99
2019-02-23T02:46:27.229Z,0.99
2019-02-23T02:47:07.804Z,0.99
2019-02-23T02:47:48.356Z,0.96
2019-02-23T02:48:28.945Z,1.01
2019-02-23T02:49:09.531Z,0.99
2019-02-23T02:49:50.102Z,1.05
2019-02-23T02:50:30.700Z,1.06
2019-02-23T02:51:11.412Z,1.02
2019-02-23T02:51:51.986Z,1.1
2019-02-23T02:52:32.535Z,1.14
2019-02-23T02:53:13.096Z,1.1
2019-02-23T02:53:53.648Z,1.1
2019-02-23T02:54:34.218Z,1.14
2019-02-23T02:55:14.774Z,1.02
2019-02-23T02:55:55.349Z,1.1
2019-02-23T02:56:35.911Z,1.08
2019-02-23T02:57:16.457Z,1.05
2019-02-23T02:57:57.007Z,1.06
2019-02-23T02:58:37.588Z,1.06
2019-02-23T02:59:18.605Z,0.99
2019-02-23T02:59:59.148Z,1.01
2019-02-23T03:00:39.770Z,1.01
2019-02-23T03:01:20.496Z,0.98
2019-02-23T03:02:01.128Z,0.98
2019-02-23T03:02:41.733Z,0.99
2019-02-23T03:03:22.283Z,0.99
2019-02-23T03:04:02.854Z,0.94
2019-02-23T03:04:43.424Z,0.98
2019-02-23T03:05:23.991Z,0.96
2019-02-23T03:06:04.550Z,0.95
2019-02-23T03:06:45.124Z,0.91
2019-02-23T03:07:25.704Z,0.94
2019-02-23T03:08:06.413Z,0.78
2019-02-23T03:08:46.993Z,0.84
2019-02-23T03:09:27.573Z,0.81
2019-02-23T03:10:08.154Z,0.78
2019-02-23T03:10:48.747Z,0.76
2019-02-23T03:11:29.305Z,0.7
2019-02-23T03:12:09.879Z,0.69
2019-02-23T03:12:50.500Z,0.7
2019-02-23T03:13:31.068Z,0.62
2019-02-23T03:14:11.645Z,0.65
2019-02-23T03:14:52.237Z,0.5
2019-02-23T03:15:32.814Z,0.55
2019-02-23T03:16:13.402Z,0.6
2019-02-23T03:16:54.044Z,0.59
2019-02-23T03:17:34.643Z,0.59
2019-02-23T03:18:15.216Z,0.56
2019-02-23T03:18:55.791Z,0.62
2019-02-23T03:19:36.348Z,0.56
2019-02-23T03:20:16.890Z,0.6
2019-02-23T03:20:57.459Z,0.62
2019-02-23T03:21:38.039Z,0.7
2019-02-23T03:22:18.700Z,0.69
2019-02-23T03:22:59.316Z,0.62
2019-02-23T03:23:39.867Z,0.62
2019-02-23T03:24:20.427Z,0.66
2019-02-23T03:25:00.977Z,0.59
2019-02-23T03:25:41.553Z,0.66
2019-02-23T03:26:22.172Z,0.63
2019-02-23T03:27:02.761Z,0.68
2019-02-23T03:27:43.320Z,0.7
2019-02-23T03:28:23.920Z,0.76
2019-02-23T03:29:04.479Z,0.77
2019-02-23T03:29:45.077Z,0.76
2019-02-23T03:30:25.655Z,0.78
2019-02-23T03:31:06.251Z,0.83
2019-02-23T03:31:46.851Z,0.78
2019-02-23T03:32:27.461Z,0.83
2019-02-23T03:33:08.022Z,0.81
2019-02-23T03:33:48.574Z,0.8
2019-02-23T03:34:29.208Z,0.8
2019-02-23T03:35:09.766Z,0.84
2019-02-23T03:35:50.328Z,0.77
2019-02-23T03:36:30.915Z,0.74
2019-02-23T03:37:11.486Z,0.8
2019-02-23T03:37:52.079Z,0.74
2019-02-23T03:38:32.639Z,0.8
2019-02-23T03:39:13.227Z,0.78
2019-02-23T03:39:53.814Z,0.83
2019-02-23T03:40:34.367Z,0.84
2019-02-23T03:41:14.934Z,0.84
2019-02-23T03:41:55.507Z,0.83
2019-02-23T03:42:36.106Z,0.88
2019-02-23T03:43:16.664Z,0.77
2019-02-23T03:43:57.237Z,0.84
2019-02-23T03:44:37.807Z,0.81
2019-02-23T03:45:18.376Z,0.81
2019-02-23T03:45:58.952Z,0.86
2019-02-23T03:46:39.551Z,0.78
2019-02-23T03:47:20.133Z,0.7
2019-02-23T03:48:00.713Z,0.76
2019-02-23T03:48:41.301Z,0.66
2019-02-23T03:49:21.894Z,0.65
2019-02-23T03:50:02.471Z,0.6
2019-02-23T03:50:48.883Z,0.76
2019-02-23T03:51:23.608Z,0.68
2019-02-23T03:52:04.170Z,0.62
2019-02-23T03:52:44.735Z,0.65
2019-02-23T03:53:25.331Z,0.74
2019-02-23T03:54:05.891Z,0.73
2019-02-23T03:54:46.462Z,0.73
2019-02-23T03:55:27.072Z,0.76
2019-02-23T03:56:07.647Z,0.76
2019-02-23T03:56:48.232Z,0.8
2019-02-23T03:57:28.788Z,0.77
2019-02-23T03:58:09.403Z,0.76
2019-02-23T03:58:49.996Z,0.77
2019-02-23T03:59:30.587Z,0.66
2019-02-23T04:00:11.148Z,0.73
2019-02-23T04:00:51.725Z,0.66
2019-02-23T04:01:32.309Z,0.76
2019-02-23T04:02:12.864Z,0.65
2019-02-23T04:02:53.440Z,0.68
2019-02-23T04:03:34.003Z,0.65
2019-02-23T04:04:14.560Z,0.65
2019-02-23T04:04:55.112Z,0.7
2019-02-23T04:05:35.682Z,0.62
2019-02-23T04:06:16.251Z,0.6
2019-02-23T04:06:56.801Z,0.63
2019-02-23T04:07:37.379Z,0.62
2019-02-23T04:08:17.957Z,0.56
2019-02-23T04:08:58.547Z,0.5
2019-02-23T04:09:39.118Z,0.5
2019-02-23T04:10:19.743Z,0.5
2019-02-23T04:11:00.289Z,0.49
2019-02-23T04:11:40.844Z,0.52
2019-02-23T04:12:21.375Z,0.56
2019-02-23T04:13:01.936Z,0.52
2019-02-23T04:13:42.518Z,0.55
2019-02-23T04:14:23.132Z,0.52
2019-02-23T04:15:03.692Z,0.6
2019-02-23T04:15:44.277Z,0.5
2019-02-23T04:16:24.839Z,0.58
2019-02-23T04:17:05.396Z,0.5
2019-02-23T04:17:45.974Z,0.58
2019-02-23T04:18:26.528Z,0.56
2019-02-23T04:19:07.091Z,0.5
2019-02-23T04:19:47.656Z,0.49
2019-02-23T04:20:28.201Z,0.55
2019-02-23T04:21:08.771Z,0.55
2019-02-23T04:21:49.319Z,0.47
2019-02-23T04:22:29.907Z,0.44
2019-02-23T04:23:10.483Z,0.52
2019-02-23T04:23:51.023Z,0.56
2019-02-23T04:24:31.589Z,0.59
2019-02-23T04:25:12.159Z,0.6
2019-02-23T04:25:52.727Z,0.55
2019-02-23T04:26:33.295Z,0.59
2019-02-23T04:27:13.891Z,0.52
2019-02-23T04:27:54.481Z,0.63
2019-02-23T04:28:35.063Z,0.68
2019-02-23T04:29:15.642Z,0.66
2019-02-23T04:29:56.206Z,0.68
2019-02-23T04:30:36.785Z,0.66
2019-02-23T04:31:17.327Z,0.68
2019-02-23T04:31:57.924Z,0.66
2019-02-23T04:32:38.488Z,0.63
2019-02-23T04:33:19.160Z,0.68
2019-02-23T04:33:59.693Z,0.7
2019-02-23T04:34:40.247Z,0.7
2019-02-23T04:35:20.793Z,0.68
2019-02-23T04:36:01.348Z,0.69
2019-02-23T04:36:41.920Z,0.66
2019-02-23T04:37:22.493Z,0.68
2019-02-23T04:38:03.236Z,0.69
2019-02-23T04:38:43.646Z,0.69
2019-02-23T04:39:24.214Z,0.62
2019-02-23T04:40:04.753Z,0.74
2019-02-23T04:40:45.353Z,0.63
2019-02-23T04:41:25.917Z,0.62
2019-02-23T04:42:06.475Z,0.6
2019-02-23T04:42:47.044Z,0.58
2019-02-23T04:43:27.717Z,0.55
2019-02-23T04:44:08.277Z,0.55
2019-02-23T04:44:48.814Z,0.52
2019-02-23T04:45:29.389Z,0.62
2019-02-23T04:46:09.964Z,0.65
2019-02-23T04:46:50.558Z,0.74
2019-02-23T04:47:31.253Z,0.68
2019-02-23T04:48:11.739Z,0.68
2019-02-23T04:48:52.307Z,0.65
2019-02-23T04:49:32.876Z,0.63
2019-02-23T04:50:13.462Z,0.59
2019-02-23T04:50:54.017Z,0.49
2019-02-23T04:51:34.570Z,0.5
2019-02-23T04:52:15.138Z,0.5
2019-02-23T04:52:55.709Z,0.58
2019-02-23T04:53:36.288Z,0.56
2019-02-23T04:54:16.866Z,0.59
2019-02-23T04:54:57.423Z,0.56
2019-02-23T04:55:38.036Z,0.58
2019-02-23T04:56:18.609Z,0.49
2019-02-23T04:56:59.166Z,0.44
2019-02-23T04:57:39.748Z,0.52
2019-02-23T04:58:20.304Z,0.6
2019-02-23T04:59:01.235Z,0.59
2019-02-23T04:59:41.791Z,0.63
2019-02-23T05:00:22.358Z,0.62
2019-02-23T05:01:02.920Z,0.56
2019-02-23T05:01:43.508Z,0.58
2019-02-23T05:02:24.087Z,0.52
2019-02-23T05:03:04.640Z,0.49
2019-02-23T05:03:45.183Z,0.52
2019-02-23T05:04:25.754Z,0.55
2019-02-23T05:05:06.357Z,0.55
2019-02-23T05:05:46.956Z,0.5
2019-02-23T05:06:27.551Z,0.62
2019-02-23T05:07:08.106Z,0.62
2019-02-23T05:07:48.689Z,0.59
2019-02-23T05:08:29.245Z,0.59
2019-02-23T05:09:09.811Z,0.52
2019-02-23T05:09:50.443Z,0.62
2019-02-23T05:10:30.995Z,0.56
2019-02-23T05:11:11.555Z,0.66
2019-02-23T05:11:52.200Z,0.69
2019-02-23T05:12:32.784Z,0.7
2019-02-23T05:13:13.338Z,0.7
2019-02-23T05:13:53.904Z,0.62
2019-02-23T05:14:34.462Z,0.68
2019-02-23T05:15:15.053Z,0.7
2019-02-23T05:15:55.620Z,0.66
2019-02-23T05:16:36.185Z,0.65
2019-02-23T05:17:16.740Z,0.6
2019-02-23T05:17:57.306Z,0.63
2019-02-23T05:18:37.878Z,0.63
2019-02-23T05:19:18.434Z,0.69
2019-02-23T05:19:59.011Z,0.69
2019-02-23T05:20:39.637Z,0.66
2019-02-23T05:21:26.148Z,0.6
2019-02-23T05:22:00.723Z,0.6
2019-02-23T05:22:41.296Z,0.62
2019-02-23T05:23:21.831Z,0.74
2019-02-23T05:24:02.432Z,0.62
2019-02-23T05:24:42.994Z,0.6
2019-02-23T05:25:23.544Z,0.47
2019-02-23T05:26:04.145Z,0.46
2019-02-23T05:26:44.775Z,0.58
2019-02-23T05:27:25.337Z,0.58
2019-02-23T05:28:05.895Z,0.52
2019-02-23T05:28:46.472Z,0.52
2019-02-23T05:29:27.061Z,0.59
2019-02-23T05:30:07.618Z,0.58
2019-02-23T05:30:48.182Z,0.55
2019-02-23T05:31:28.804Z,0.49
2019-02-23T05:32:09.372Z,0.43
2019-02-23T05:32:49.922Z,0.52
2019-02-23T05:33:30.492Z,0.47
2019-02-23T05:34:11.050Z,0.47
2019-02-23T05:34:51.592Z,0.52
2019-02-23T05:35:32.167Z,0.5
2019-02-23T05:36:12.760Z,0.55
2019-02-23T05:36:53.364Z,0.56
2019-02-23T05:37:33.960Z,0.5
2019-02-23T05:38:14.525Z,0.5
2019-02-23T05:38:55.099Z,0.62
2019-02-23T05:39:35.661Z,0.63
2019-02-23T05:40:16.221Z,0.63
2019-02-23T05:40:56.783Z,0.6
2019-02-23T05:41:37.361Z,0.59
2019-02-23T05:42:17.920Z,0.62
2019-02-23T05:43:01.133Z,0.59
2019-02-23T05:43:39.127Z,0.69
2019-02-23T05:44:19.677Z,0.68
2019-02-23T05:45:00.389Z,0.68
2019-02-23T05:45:40.830Z,0.68
2019-02-23T05:46:21.375Z,0.74
2019-02-23T05:47:01.949Z,0.65
2019-02-23T05:47:42.525Z,0.66
2019-02-23T05:48:23.069Z,0.65
2019-02-23T05:49:03.674Z,0.77
2019-02-23T05:49:44.234Z,0.63
2019-02-23T05:50:24.851Z,0.6
2019-02-23T05:51:05.418Z,0.65
2019-02-23T05:51:45.998Z,0.6
2019-02-23T05:52:26.537Z,0.68
2019-02-23T05:53:07.083Z,0.7
2019-02-23T05:53:47.642Z,0.68
2019-02-23T05:54:28.208Z,0.68
2019-02-23T05:55:08.772Z,0.63
2019-02-23T05:55:49.361Z,0.63
2019-02-23T05:56:29.933Z,0.55
2019-02-23T05:57:10.509Z,0.59
2019-02-23T05:57:51.042Z,0.62
2019-02-23T05:58:31.593Z,0.59
2019-02-23T05:59:12.306Z,0.6
2019-02-23T05:59:52.881Z,0.55
2019-02-23T06:00:33.437Z,0.56
2019-02-23T06:01:14.005Z,0.6
2019-02-23T06:01:54.558Z,0.63
2019-02-23T06:02:35.174Z,0.58
2019-02-23T06:03:15.764Z,0.47
2019-02-23T06:03:56.320Z,0.55
2019-02-23T06:04:36.895Z,0.52
2019-02-23T06:05:17.513Z,0.49
2019-02-23T06:05:58.048Z,0.6
2019-02-23T06:06:38.620Z,0.56
2019-02-23T06:07:19.174Z,0.5
2019-02-23T06:07:59.913Z,0.46
2019-02-23T06:08:40.440Z,0.43
2019-02-23T06:09:21.029Z,0.43
2019-02-23T06:10:01.643Z,0.39
2019-02-23T06:10:44.552Z,0.39
2019-02-23T06:11:22.940Z,0.44
2019-02-23T06:12:03.530Z,0.47
2019-02-23T06:12:44.055Z,0.44
2019-02-23T06:13:24.633Z,0.55
2019-02-23T06:14:07.163Z,0.6
2019-02-23T06:14:47.747Z,0.52
2019-02-23T06:15:28.326Z,0.56
2019-02-23T06:16:08.904Z,0.59
2019-02-23T06:16:49.550Z,0.56
2019-02-23T06:17:30.085Z,0.52
2019-02-23T06:18:10.761Z,0.58
2019-02-23T06:18:51.315Z,0.5
2019-02-23T06:19:31.907Z,0.56
2019-02-23T06:20:12.492Z,0.49
2019-02-23T06:20:53.078Z,0.6
2019-02-23T06:21:33.627Z,0.59
2019-02-23T06:22:14.176Z,0.55
2019-02-23T06:22:54.729Z,0.6
2019-02-23T06:23:35.302Z,0.55
2019-02-23T06:24:15.846Z,0.55
2019-02-23T06:24:56.444Z,0.6
2019-02-23T06:25:37.001Z,0.59
2019-02-23T06:26:17.637Z,0.56
2019-02-23T06:26:58.155Z,0.66
2019-02-23T06:27:38.727Z,0.68
2019-02-23T06:28:19.304Z,0.63
2019-02-23T06:28:59.863Z,0.69
2019-02-23T06:29:40.503Z,0.7
2019-02-23T06:30:21.085Z,0.7
2019-02-23T06:31:01.721Z,0.6
2019-02-23T06:31:42.273Z,0.69
2019-02-23T06:32:22.847Z,0.63
2019-02-23T06:33:03.413Z,0.7
2019-02-23T06:33:44.008Z,0.62
2019-02-23T06:34:24.554Z,0.65
2019-02-23T06:35:05.122Z,0.49
2019-02-23T06:35:45.701Z,0.49
2019-02-23T06:36:26.353Z,0.58
2019-02-23T06:37:06.962Z,0.55
2019-02-23T06:37:47.521Z,0.56
2019-02-23T06:38:28.100Z,0.46
2019-02-23T06:39:08.668Z,0.46
2019-02-23T06:39:49.246Z,0.47
2019-02-23T06:40:29.793Z,0.59
2019-02-23T06:41:10.363Z,0.59
2019-02-23T06:41:50.908Z,0.52
2019-02-23T06:42:31.482Z,0.52
2019-02-23T06:43:12.036Z,0.5
2019-02-23T06:43:52.619Z,0.52
2019-02-23T06:44:33.160Z,0.5
2019-02-23T06:45:13.738Z,0.58
2019-02-23T06:45:54.332Z,0.52
2019-02-23T06:46:34.894Z,0.62
2019-02-23T06:47:15.436Z,0.55
2019-02-23T06:47:56.012Z,0.58
2019-02-23T06:48:36.632Z,0.52
2019-02-23T06:49:17.201Z,0.65
2019-02-23T06:49:57.801Z,0.63
2019-02-23T06:50:38.356Z,0.55
2019-02-23T06:51:18.919Z,0.62
2019-02-23T06:52:04.163Z,0.58
2019-02-23T06:52:40.029Z,0.5
2019-02-23T06:53:20.637Z,0.5
2019-02-23T06:54:01.207Z,0.52
2019-02-23T06:54:41.763Z,0.52
2019-02-23T06:55:22.343Z,0.49
2019-02-23T06:56:02.903Z,0.5
2019-02-23T06:56:43.457Z,0.49
2019-02-23T06:57:24.023Z,0.52
2019-02-23T06:58:04.603Z,0.62
2019-02-23T06:58:45.159Z,0.52
2019-02-23T06:59:25.747Z,0.58
2019-02-23T07:00:06.288Z,0.55
2019-02-23T07:00:46.841Z,0.49
2019-02-23T07:01:27.396Z,0.56
2019-02-23T07:02:07.960Z,0.49
2019-02-23T07:02:48.513Z,0.59
2019-02-23T07:03:29.072Z,0.56
2019-02-23T07:04:09.620Z,0.6
2019-02-23T07:04:50.181Z,0.66
2019-02-23T07:05:30.753Z,0.58
2019-02-23T07:06:11.323Z,0.59
2019-02-23T07:06:51.891Z,0.59
2019-02-23T07:07:32.525Z,0.6
2019-02-23T07:08:13.116Z,0.65
2019-02-23T07:08:53.668Z,0.63
2019-02-23T07:09:34.289Z,0.63
2019-02-23T07:10:14.840Z,0.62
2019-02-23T07:10:55.430Z,0.6
2019-02-23T07:11:36.012Z,0.6
2019-02-23T07:12:16.604Z,0.65
2019-02-23T07:12:57.180Z,0.62
2019-02-23T07:13:37.749Z,0.63
2019-02-23T07:14:18.338Z,0.6
2019-02-23T07:14:58.910Z,0.6
2019-02-23T07:15:39.495Z,0.69
2019-02-23T07:16:20.045Z,0.73
2019-02-23T07:17:00.647Z,0.65
2019-02-23T07:17:41.202Z,0.65
2019-02-23T07:18:21.753Z,0.76
2019-02-23T07:19:02.325Z,0.76
2019-02-23T07:19:42.906Z,0.78
2019-02-23T07:20:23.496Z,0.8
2019-02-23T07:21:04.056Z,0.77
2019-02-23T07:21:44.621Z,0.8
2019-02-23T07:22:25.231Z,0.92
2019-02-23T07:23:05.791Z,0.95
2019-02-23T07:23:46.370Z,0.92
2019-02-23T07:24:26.948Z,0.99
2019-02-23T07:25:07.533Z,0.92
2019-02-23T07:25:48.214Z,0.95
2019-02-23T07:26:28.779Z,0.99
2019-02-23T07:27:09.351Z,0.98
2019-02-23T07:27:49.931Z,0.99
2019-02-23T07:28:30.477Z,0.99
2019-02-23T07:29:11.082Z,1.01
2019-02-23T07:29:51.663Z,0.94
2019-02-23T07:30:32.240Z,1.1
2019-02-23T07:31:12.783Z,1.06
2019-02-23T07:31:53.345Z,1.12
2019-02-23T07:32:33.929Z,1.1
2019-02-23T07:33:14.517Z,1.1
2019-02-23T07:33:55.088Z,1.2
2019-02-23T07:34:35.642Z,1.13
2019-02-23T07:35:16.201Z,1.13
2019-02-23T07:35:56.805Z,1.16
2019-02-23T07:36:37.358Z,1.13
2019-02-23T07:37:17.922Z,1.14
2019-02-23T07:37:58.481Z,1.17
2019-02-23T07:38:39.037Z,1.13
2019-02-23T07:39:19.606Z,1.13
2019-02-23T07:40:00.209Z,1.19
2019-02-23T07:40:40.720Z,1.17
2019-02-23T07:41:21.292Z,1.14
2019-02-23T07:42:01.843Z,1.17
2019-02-23T07:42:42.415Z,1.08
2019-02-23T07:43:22.994Z,1.14
2019-02-23T07:44:03.587Z,1.16
2019-02-23T07:44:44.116Z,1.1
2019-02-23T07:45:24.662Z,1.06
2019-02-23T07:46:05.236Z,1.08
2019-02-23T07:46:45.798Z,1.12
2019-02-23T07:47:26.365Z,1.06
2019-02-23T07:48:06.950Z,1.04
2019-02-23T07:48:47.503Z,0.94
2019-02-23T07:49:28.072Z,0.99
2019-02-23T07:50:08.635Z,0.91
2019-02-23T07:50:49.204Z,0.96
2019-02-23T07:51:29.786Z,1.01
2019-02-23T07:52:10.365Z,0.95
2019-02-23T07:52:50.948Z,0.99
2019-02-23T07:53:31.497Z,0.99
2019-02-23T07:54:12.055Z,0.95
2019-02-23T07:54:52.611Z,0.96
2019-02-23T07:55:33.174Z,0.95
2019-02-23T07:56:13.753Z,0.96
2019-02-23T07:56:54.315Z,0.92
2019-02-23T07:57:34.929Z,0.96
2019-02-23T07:58:15.491Z,0.99
2019-02-23T07:58:56.109Z,0.95
2019-02-23T07:59:36.629Z,0.99
2019-02-23T08:00:17.212Z,0.99
2019-02-23T08:00:57.754Z,0.98
2019-02-23T08:01:38.311Z,1.05
2019-02-23T08:02:19.659Z,1.01
2019-02-23T08:03:00.243Z,0.99
2019-02-23T08:03:40.819Z,1.05
2019-02-23T08:04:21.394Z,1.06
2019-02-23T08:05:02.073Z,1.13
2019-02-23T08:05:42.747Z,1.08
2019-02-23T08:06:23.441Z,1.17
2019-02-23T08:07:04.223Z,1.16
2019-02-23T08:07:44.958Z,1.16
2019-02-23T08:08:25.830Z,1.2
2019-02-23T08:09:06.471Z,1.17
2019-02-23T08:09:47.223Z,1.28
2019-02-23T08:10:27.918Z,1.4
2019-02-23T08:11:08.736Z,1.49
2019-02-23T08:11:49.638Z,1.6
2019-02-23T08:12:30.425Z,1.68
2019-02-23T08:13:11.163Z,1.76
2019-02-23T08:13:51.715Z,2.06
2019-02-23T08:14:32.285Z,2.18
2019-02-23T08:15:12.860Z,2.57
2019-02-23T08:15:53.423Z,2.89
2019-02-23T08:16:33.994Z,3.11
2019-02-23T08:17:14.561Z,3.42
2019-02-23T08:17:55.126Z,3.74
2019-02-23T08:18:35.711Z,4.1
2019-02-23T08:19:16.266Z,4.2
2019-02-23T08:19:56.839Z,4.49
2019-02-23T08:20:37.460Z,4.71
2019-02-23T08:21:18.017Z,4.82
2019-02-23T08:21:58.584Z,4.94
2019-02-23T08:22:39.153Z,5.07
2019-02-23T08:25:27.754Z,5.5
2019-02-23T08:26:08.374Z,5.68
2019-02-23T08:26:48.924Z,5.87
2019-02-23T08:27:29.479Z,5.89
2019-02-23T08:28:10.061Z,5.97
2019-02-23T08:28:50.643Z,5.9
2019-02-23T08:29:31.207Z,6.12
2019-02-23T08:30:11.871Z,6.26
2019-02-23T08:30:52.437Z,6.45
2019-02-23T08:31:33.016Z,6.74
2019-02-23T08:32:13.610Z,6.88
2019-02-23T08:32:54.237Z,6.97
2019-02-23T08:33:34.796Z,7.13
2019-02-23T08:34:15.514Z,7.21
2019-02-23T08:34:55.997Z,7.32
2019-02-23T08:35:36.588Z,7.42
2019-02-23T08:36:17.160Z,7.58
2019-02-23T08:36:57.737Z,7.76
2019-02-23T08:37:38.294Z,7.87
2019-02-23T08:38:18.867Z,7.93
2019-02-23T08:38:59.441Z,7.88
2019-02-23T08:39:39.996Z,7.98
2019-02-23T08:40:20.563Z,8
2019-02-23T08:41:01.110Z,7.9
2019-02-23T08:41:43.308Z,7.9
2019-02-23T08:42:22.267Z,7.95
2019-02-23T08:43:02.843Z,8.01
2019-02-23T08:43:43.396Z,8.16
2019-02-23T08:44:23.970Z,8.2
2019-02-23T08:45:04.526Z,8.28
2019-02-23T08:45:45.102Z,8.37
2019-02-23T08:46:25.651Z,8.44
2019-02-23T08:47:06.221Z,8.49
2019-02-23T08:47:47.041Z,8.51
2019-02-23T08:48:27.359Z,8.61
2019-02-23T08:49:07.960Z,8.61
2019-02-23T08:49:48.539Z,8.63
2019-02-23T08:50:29.130Z,8.63
2019-02-23T08:51:09.690Z,8.66
2019-02-23T08:51:50.321Z,8.64
2019-02-23T08:52:30.890Z,8.51
2019-02-23T08:53:11.465Z,8.46
2019-02-23T08:53:52.048Z,8.49
2019-02-23T08:54:32.600Z,8.53
2019-02-23T08:55:13.190Z,8.49
2019-02-23T08:55:53.763Z,8.44
2019-02-23T08:56:34.367Z,8.42
2019-02-23T08:57:14.950Z,8.2
2019-02-23T08:57:55.564Z,8.05
2019-02-23T08:58:36.218Z,8.01
2019-02-23T08:59:18.548Z,7.76
2019-02-23T08:59:59.064Z,7.7
2019-02-23T09:00:39.645Z,7.7
2019-02-23T09:01:20.301Z,7.7
2019-02-23T09:02:00.954Z,7.63
2019-02-23T09:02:41.683Z,7.66
2019-02-23T09:03:22.313Z,7.63
2019-02-23T09:04:02.861Z,7.63
2019-02-23T09:04:43.530Z,7.58